sensor_id;sensor_type;location;lat;lon;timestamp;pressure;altitude;pressure_sealevel;temperature;humidity
63281;BME280;49406;51.044;3.766;2023-04-04T00:01:18;102954.45;;;3.47;70.23
63281;BME280;49406;51.044;3.766;2023-04-04T00:03:50;102953.61;;;3.43;70.37
63281;BME280;49406;51.044;3.766;2023-04-04T00:06:23;102945.05;;;3.41;70.54
63281;BME280;49406;51.044;3.766;2023-04-04T00:08:55;102944.20;;;3.44;70.64
63281;BME280;49406;51.044;3.766;2023-04-04T00:11:28;102938.96;;;3.46;69.99
63281;BME280;49406;51.044;3.766;2023-04-04T00:14:01;102935.40;;;3.45;70.24
63281;BME280;49406;51.044;3.766;2023-04-04T00:16:34;102926.33;;;3.43;70.50
63281;BME280;49406;51.044;3.766;2023-04-04T00:19:07;102921.18;;;3.34;70.84
63281;BME280;49406;51.044;3.766;2023-04-04T00:21:42;102921.45;;;3.25;71.23
63281;BME280;49406;51.044;3.766;2023-04-04T00:24:15;102920.73;;;3.22;71.33
63281;BME280;49406;51.044;3.766;2023-04-04T00:26:48;102923.12;;;3.17;71.73
63281;BME280;49406;51.044;3.766;2023-04-04T00:29:20;102926.27;;;3.08;72.18
63281;BME280;49406;51.044;3.766;2023-04-04T00:31:53;102929.36;;;3.01;72.77
63281;BME280;49406;51.044;3.766;2023-04-04T00:34:26;102931.60;;;2.98;73.07
63281;BME280;49406;51.044;3.766;2023-04-04T00:36:59;102934.81;;;3.07;73.07
63281;BME280;49406;51.044;3.766;2023-04-04T00:39:31;102931.31;;;2.99;73.12
63281;BME280;49406;51.044;3.766;2023-04-04T00:42:04;102934.02;;;2.96;73.62
63281;BME280;49406;51.044;3.766;2023-04-04T00:44:37;102939.52;;;2.91;73.80
63281;BME280;49406;51.044;3.766;2023-04-04T00:47:09;102938.48;;;2.86;74.19
63281;BME280;49406;51.044;3.766;2023-04-04T00:49:44;102933.96;;;2.84;74.54
63281;BME280;49406;51.044;3.766;2023-04-04T00:52:17;102930.45;;;2.78;74.68
63281;BME280;49406;51.044;3.766;2023-04-04T00:54:50;102927.25;;;2.74;75.19
63281;BME280;49406;51.044;3.766;2023-04-04T00:57:23;102928.67;;;2.87;74.60
63281;BME280;49406;51.044;3.766;2023-04-04T00:59:57;102924.05;;;2.87;74.54
63281;BME280;49406;51.044;3.766;2023-04-04T01:02:30;102930.30;;;2.78;74.93
63281;BME280;49406;51.044;3.766;2023-04-04T01:05:03;102933.31;;;2.75;75.05
63281;BME280;49406;51.044;3.766;2023-04-04T01:07:36;102936.48;;;2.70;75.26
63281;BME280;49406;51.044;3.766;2023-04-04T01:10:10;102946.02;;;2.64;75.79
63281;BME280;49406;51.044;3.766;2023-04-04T01:12:43;102948.59;;;2.57;76.57
63281;BME280;49406;51.044;3.766;2023-04-04T01:15:16;102946.38;;;2.59;76.47
63281;BME280;49406;51.044;3.766;2023-04-04T01:17:50;102949.70;;;2.67;76.01
63281;BME280;49406;51.044;3.766;2023-04-04T01:20:25;102952.33;;;2.58;76.19
63281;BME280;49406;51.044;3.766;2023-04-04T01:23:01;102949.52;;;2.53;76.45
63281;BME280;49406;51.044;3.766;2023-04-04T01:25:35;102953.31;;;2.49;77.01
63281;BME280;49406;51.044;3.766;2023-04-04T01:28:08;102954.36;;;2.46;77.00
63281;BME280;49406;51.044;3.766;2023-04-04T01:30:41;102955.58;;;2.44;77.29
63281;BME280;49406;51.044;3.766;2023-04-04T01:33:20;102958.84;;;2.51;77.34
63281;BME280;49406;51.044;3.766;2023-04-04T01:36:04;102960.58;;;2.51;77.37
63281;BME280;49406;51.044;3.766;2023-04-04T01:38:44;102963.43;;;2.43;77.90
63281;BME280;49406;51.044;3.766;2023-04-04T01:41:22;102960.64;;;2.40;78.05
63281;BME280;49406;51.044;3.766;2023-04-04T01:43:56;102959.91;;;2.33;78.26
63281;BME280;49406;51.044;3.766;2023-04-04T01:46:29;102955.36;;;2.30;78.52
63281;BME280;49406;51.044;3.766;2023-04-04T01:49:02;102955.55;;;2.23;78.58
63281;BME280;49406;51.044;3.766;2023-04-04T01:51:34;102961.63;;;2.26;78.43
63281;BME280;49406;51.044;3.766;2023-04-04T01:54:07;102962.98;;;2.37;77.85
63281;BME280;49406;51.044;3.766;2023-04-04T01:56:40;102960.17;;;2.32;77.96
63281;BME280;49406;51.044;3.766;2023-04-04T01:59:12;102963.48;;;2.23;78.01
63281;BME280;49406;51.044;3.766;2023-04-04T02:01:45;102961.27;;;2.12;78.52
63281;BME280;49406;51.044;3.766;2023-04-04T02:04:18;102960.62;;;2.08;79.01
63281;BME280;49406;51.044;3.766;2023-04-04T02:06:50;102952.48;;;2.05;78.80
63281;BME280;49406;51.044;3.766;2023-04-04T02:09:23;102944.60;;;2.06;79.25
63281;BME280;49406;51.044;3.766;2023-04-04T02:11:55;102941.23;;;2.02;79.35
63281;BME280;49406;51.044;3.766;2023-04-04T02:14:28;102939.66;;;2.09;79.24
63281;BME280;49406;51.044;3.766;2023-04-04T02:17:00;102937.66;;;2.18;78.57
63281;BME280;49406;51.044;3.766;2023-04-04T02:19:33;102933.79;;;2.09;78.98
63281;BME280;49406;51.044;3.766;2023-04-04T02:22:06;102932.89;;;2.02;79.96
63281;BME280;49406;51.044;3.766;2023-04-04T02:24:39;102929.02;;;1.94;80.28
63281;BME280;49406;51.044;3.766;2023-04-04T02:27:11;102931.46;;;1.86;81.17
63281;BME280;49406;51.044;3.766;2023-04-04T02:29:44;102929.67;;;1.80;81.60
63281;BME280;49406;51.044;3.766;2023-04-04T02:32:16;102932.84;;;1.72;82.04
63281;BME280;49406;51.044;3.766;2023-04-04T02:34:49;102939.14;;;1.67;82.24
63281;BME280;49406;51.044;3.766;2023-04-04T02:37:21;102941.33;;;1.62;82.71
63281;BME280;49406;51.044;3.766;2023-04-04T02:39:54;102944.43;;;1.68;82.53
63281;BME280;49406;51.044;3.766;2023-04-04T02:42:27;102948.95;;;1.69;82.06
63281;BME280;49406;51.044;3.766;2023-04-04T02:44:59;102946.46;;;1.66;82.39
63281;BME280;49406;51.044;3.766;2023-04-04T02:47:32;102939.48;;;1.65;82.26
63281;BME280;49406;51.044;3.766;2023-04-04T02:50:07;102939.19;;;1.63;82.46
63281;BME280;49406;51.044;3.766;2023-04-04T02:52:40;102928.95;;;1.60;82.62
63281;BME280;49406;51.044;3.766;2023-04-04T02:55:12;102927.29;;;1.47;83.02
63281;BME280;49406;51.044;3.766;2023-04-04T02:57:51;102928.18;;;1.35;83.99
63281;BME280;49406;51.044;3.766;2023-04-04T03:00:23;102925.90;;;1.21;84.25
63281;BME280;49406;51.044;3.766;2023-04-04T03:02:56;102925.71;;;1.12;84.97
63281;BME280;49406;51.044;3.766;2023-04-04T03:05:29;102924.04;;;1.04;85.61
63281;BME280;49406;51.044;3.766;2023-04-04T03:08:02;102921.39;;;0.97;85.74
63281;BME280;49406;51.044;3.766;2023-04-04T03:10:35;102914.49;;;0.86;85.70
63281;BME280;49406;51.044;3.766;2023-04-04T03:13:08;102915.80;;;0.74;86.74
63281;BME280;49406;51.044;3.766;2023-04-04T03:15:40;102916.55;;;0.67;88.19
63281;BME280;49406;51.044;3.766;2023-04-04T03:18:14;102911.33;;;0.64;89.54
63281;BME280;49406;51.044;3.766;2023-04-04T03:20:47;102910.27;;;0.74;88.61
63281;BME280;49406;51.044;3.766;2023-04-04T03:23:19;102917.08;;;0.82;87.63
63281;BME280;49406;51.044;3.766;2023-04-04T03:25:52;102922.20;;;0.81;87.13
63281;BME280;49406;51.044;3.766;2023-04-04T03:28:25;102922.06;;;0.73;86.72
63281;BME280;49406;51.044;3.766;2023-04-04T03:31:03;102930.37;;;0.57;87.16
63281;BME280;49406;51.044;3.766;2023-04-04T03:33:37;102930.05;;;0.38;88.27
63281;BME280;49406;51.044;3.766;2023-04-04T03:36:12;102939.22;;;0.28;89.25
63281;BME280;49406;51.044;3.766;2023-04-04T03:38:45;102939.50;;;0.17;89.64
63281;BME280;49406;51.044;3.766;2023-04-04T03:41:17;102946.91;;;0.07;90.61
63281;BME280;49406;51.044;3.766;2023-04-04T03:43:50;102939.83;;;0.03;91.57
63281;BME280;49406;51.044;3.766;2023-04-04T03:46:23;102944.57;;;0.00;92.11
63281;BME280;49406;51.044;3.766;2023-04-04T03:48:56;102940.98;;;-0.03;92.79
63281;BME280;49406;51.044;3.766;2023-04-04T03:51:28;102939.29;;;-0.01;93.03
63281;BME280;49406;51.044;3.766;2023-04-04T03:54:01;102941.77;;;0.01;93.30
63281;BME280;49406;51.044;3.766;2023-04-04T03:56:33;102936.44;;;0.06;93.39
63281;BME280;49406;51.044;3.766;2023-04-04T03:59:07;102930.08;;;0.10;93.18
63281;BME280;49406;51.044;3.766;2023-04-04T04:01:40;102920.48;;;0.29;93.47
63281;BME280;49406;51.044;3.766;2023-04-04T04:04:12;102918.50;;;0.42;92.65
63281;BME280;49406;51.044;3.766;2023-04-04T04:06:45;102917.25;;;0.46;91.55
63281;BME280;49406;51.044;3.766;2023-04-04T04:09:19;102918.36;;;0.45;91.74
63281;BME280;49406;51.044;3.766;2023-04-04T04:11:52;102919.02;;;0.45;91.24
63281;BME280;49406;51.044;3.766;2023-04-04T04:14:24;102921.09;;;0.40;91.26
63281;BME280;49406;51.044;3.766;2023-04-04T04:16:56;102922.94;;;0.29;90.87
63281;BME280;49406;51.044;3.766;2023-04-04T04:19:28;102930.55;;;0.15;91.06
63281;BME280;49406;51.044;3.766;2023-04-04T04:22:01;102933.89;;;-0.00;91.40
63281;BME280;49406;51.044;3.766;2023-04-04T04:24:33;102936.83;;;-0.12;92.14
63281;BME280;49406;51.044;3.766;2023-04-04T04:27:06;102934.59;;;-0.22;93.02
63281;BME280;49406;51.044;3.766;2023-04-04T04:29:39;102936.52;;;-0.28;94.01
63281;BME280;49406;51.044;3.766;2023-04-04T04:32:15;102932.90;;;-0.36;94.24
63281;BME280;49406;51.044;3.766;2023-04-04T04:34:48;102935.23;;;-0.45;94.23
63281;BME280;49406;51.044;3.766;2023-04-04T04:37:21;102935.52;;;-0.57;94.31
63281;BME280;49406;51.044;3.766;2023-04-04T04:39:54;102938.02;;;-0.68;94.52
63281;BME280;49406;51.044;3.766;2023-04-04T04:42:27;102936.67;;;-0.81;94.73
63281;BME280;49406;51.044;3.766;2023-04-04T04:45:00;102936.74;;;-0.93;95.53
63281;BME280;49406;51.044;3.766;2023-04-04T04:47:33;102933.08;;;-1.05;96.26
63281;BME280;49406;51.044;3.766;2023-04-04T04:50:05;102932.23;;;-1.16;96.96
63281;BME280;49406;51.044;3.766;2023-04-04T04:52:39;102931.40;;;-1.26;97.58
63281;BME280;49406;51.044;3.766;2023-04-04T04:55:10;102932.22;;;-1.36;98.30
63281;BME280;49406;51.044;3.766;2023-04-04T04:57:43;102935.47;;;-1.45;99.47
63281;BME280;49406;51.044;3.766;2023-04-04T05:00:17;102938.71;;;-1.53;100.00
63281;BME280;49406;51.044;3.766;2023-04-04T05:02:50;102941.26;;;-1.61;100.00
63281;BME280;49406;51.044;3.766;2023-04-04T05:05:25;102943.28;;;-1.67;100.00
63281;BME280;49406;51.044;3.766;2023-04-04T05:07:58;102943.72;;;-1.73;100.00
63281;BME280;49406;51.044;3.766;2023-04-04T05:10:31;102951.73;;;-1.76;100.00
63281;BME280;49406;51.044;3.766;2023-04-04T05:13:03;102948.08;;;-1.80;100.00
63281;BME280;49406;51.044;3.766;2023-04-04T05:15:36;102949.72;;;-1.85;100.00
63281;BME280;49406;51.044;3.766;2023-04-04T05:18:08;102955.55;;;-1.87;100.00
63281;BME280;49406;51.044;3.766;2023-04-04T05:20:40;102956.65;;;-1.88;100.00
63281;BME280;49406;51.044;3.766;2023-04-04T05:23:12;102950.78;;;-1.88;100.00
63281;BME280;49406;51.044;3.766;2023-04-04T05:25:44;102949.67;;;-1.93;100.00
63281;BME280;49406;51.044;3.766;2023-04-04T05:28:17;102953.64;;;-1.90;100.00
63281;BME280;49406;51.044;3.766;2023-04-04T05:30:49;102959.63;;;-1.87;100.00
63281;BME280;49406;51.044;3.766;2023-04-04T05:33:21;102959.23;;;-1.79;100.00
63281;BME280;49406;51.044;3.766;2023-04-04T05:35:54;102963.22;;;-1.55;100.00
63281;BME280;49406;51.044;3.766;2023-04-04T05:38:27;102957.02;;;-1.19;100.00
63281;BME280;49406;51.044;3.766;2023-04-04T05:41:00;102961.90;;;-0.72;100.00
63281;BME280;49406;51.044;3.766;2023-04-04T05:43:32;102966.17;;;-0.33;100.00
63281;BME280;49406;51.044;3.766;2023-04-04T05:46:05;102969.98;;;0.08;100.00
63281;BME280;49406;51.044;3.766;2023-04-04T05:48:37;102969.05;;;0.50;100.00
63281;BME280;49406;51.044;3.766;2023-04-04T05:51:10;102971.32;;;0.99;100.00
63281;BME280;49406;51.044;3.766;2023-04-04T05:53:42;102968.71;;;1.57;100.00
63281;BME280;49406;51.044;3.766;2023-04-04T05:56:16;102967.84;;;2.01;100.00
63281;BME280;49406;51.044;3.766;2023-04-04T05:58:49;102969.21;;;2.39;99.56
63281;BME280;49406;51.044;3.766;2023-04-04T06:01:21;102974.17;;;2.78;97.80
63281;BME280;49406;51.044;3.766;2023-04-04T06:03:54;102978.54;;;3.19;96.01
63281;BME280;49406;51.044;3.766;2023-04-04T06:06:27;102984.04;;;3.60;93.73
63281;BME280;49406;51.044;3.766;2023-04-04T06:09:00;102984.91;;;3.91;92.05
63281;BME280;49406;51.044;3.766;2023-04-04T06:11:32;102989.91;;;4.11;89.96
63281;BME280;49406;51.044;3.766;2023-04-04T06:14:05;102991.36;;;4.20;88.34
63281;BME280;49406;51.044;3.766;2023-04-04T06:16:39;102995.77;;;4.18;86.49
63281;BME280;49406;51.044;3.766;2023-04-04T06:19:12;102994.58;;;4.16;85.81
63281;BME280;49406;51.044;3.766;2023-04-04T06:21:45;102995.08;;;4.06;82.69
63281;BME280;49406;51.044;3.766;2023-04-04T06:24:17;103001.91;;;3.85;79.20
63281;BME280;49406;51.044;3.766;2023-04-04T06:26:50;103002.96;;;3.75;78.68
63281;BME280;49406;51.044;3.766;2023-04-04T06:29:23;103002.39;;;3.77;79.04
63281;BME280;49406;51.044;3.766;2023-04-04T06:31:57;103009.38;;;3.83;76.78
63281;BME280;49406;51.044;3.766;2023-04-04T06:34:30;103014.88;;;3.89;78.22
63281;BME280;49406;51.044;3.766;2023-04-04T06:37:02;103019.88;;;4.12;79.05
63281;BME280;49406;51.044;3.766;2023-04-04T06:39:34;103020.27;;;4.35;77.76
63281;BME280;49406;51.044;3.766;2023-04-04T06:42:07;103015.48;;;4.41;74.50
63281;BME280;49406;51.044;3.766;2023-04-04T06:44:39;103011.94;;;4.27;74.04
63281;BME280;49406;51.044;3.766;2023-04-04T06:47:12;103018.10;;;4.23;73.33
63281;BME280;49406;51.044;3.766;2023-04-04T06:49:45;103022.92;;;4.28;74.53
63281;BME280;49406;51.044;3.766;2023-04-04T06:52:17;103021.79;;;4.32;72.50
63281;BME280;49406;51.044;3.766;2023-04-04T06:54:50;103024.31;;;4.36;72.47
63281;BME280;49406;51.044;3.766;2023-04-04T06:57:23;103021.84;;;4.53;72.73
63281;BME280;49406;51.044;3.766;2023-04-04T06:59:55;103023.48;;;4.72;71.61
63281;BME280;49406;51.044;3.766;2023-04-04T07:02:28;103021.52;;;4.90;69.72
63281;BME280;49406;51.044;3.766;2023-04-04T07:05:01;103024.54;;;5.25;71.01
63281;BME280;49406;51.044;3.766;2023-04-04T07:07:34;103023.48;;;5.41;66.73
63281;BME280;49406;51.044;3.766;2023-04-04T07:10:08;103021.84;;;5.59;67.47
63281;BME280;49406;51.044;3.766;2023-04-04T07:12:40;103017.78;;;5.86;66.68
63281;BME280;49406;51.044;3.766;2023-04-04T07:15:13;103017.45;;;5.96;65.05
63281;BME280;49406;51.044;3.766;2023-04-04T07:17:45;103015.20;;;6.16;65.82
63281;BME280;49406;51.044;3.766;2023-04-04T07:20:18;103017.73;;;6.26;62.81
63281;BME280;49406;51.044;3.766;2023-04-04T07:22:51;103014.77;;;6.15;60.87
63281;BME280;49406;51.044;3.766;2023-04-04T07:25:23;103015.94;;;6.17;61.08
63281;BME280;49406;51.044;3.766;2023-04-04T07:27:56;103013.28;;;6.31;61.82
63281;BME280;49406;51.044;3.766;2023-04-04T07:30:28;103011.73;;;6.36;60.21
63281;BME280;49406;51.044;3.766;2023-04-04T07:33:03;103009.27;;;6.39;59.63
63281;BME280;49406;51.044;3.766;2023-04-04T07:35:36;103010.93;;;6.44;59.88
63281;BME280;49406;51.044;3.766;2023-04-04T07:38:09;103007.36;;;6.59;59.54
63281;BME280;49406;51.044;3.766;2023-04-04T07:40:41;103004.82;;;6.52;58.26
63281;BME280;49406;51.044;3.766;2023-04-04T07:43:13;102997.42;;;6.39;58.38
63281;BME280;49406;51.044;3.766;2023-04-04T07:45:46;102997.83;;;6.42;58.69
63281;BME280;49406;51.044;3.766;2023-04-04T07:48:18;103003.95;;;6.49;58.80
63281;BME280;49406;51.044;3.766;2023-04-04T07:50:51;103000.30;;;6.55;58.79
63281;BME280;49406;51.044;3.766;2023-04-04T07:53:24;102998.61;;;6.58;58.55
63281;BME280;49406;51.044;3.766;2023-04-04T07:55:56;102996.23;;;6.62;57.64
63281;BME280;49406;51.044;3.766;2023-04-04T07:58:29;102998.00;;;6.72;57.87
63281;BME280;49406;51.044;3.766;2023-04-04T08:01:02;102989.94;;;7.07;58.47
63281;BME280;49406;51.044;3.766;2023-04-04T08:03:34;102990.46;;;7.26;56.57
63281;BME280;49406;51.044;3.766;2023-04-04T08:06:07;102990.15;;;7.26;55.23
63281;BME280;49406;51.044;3.766;2023-04-04T08:08:40;102993.13;;;7.39;55.69
63281;BME280;49406;51.044;3.766;2023-04-04T08:11:13;102996.55;;;7.53;55.72
63281;BME280;49406;51.044;3.766;2023-04-04T08:13:46;102994.36;;;7.71;53.94
63281;BME280;49406;51.044;3.766;2023-04-04T08:16:18;102989.96;;;7.89;52.54
63281;BME280;49406;51.044;3.766;2023-04-04T08:18:51;102999.22;;;7.96;50.23
63281;BME280;49406;51.044;3.766;2023-04-04T08:21:24;102994.73;;;7.91;50.61
63281;BME280;49406;51.044;3.766;2023-04-04T08:23:57;102996.60;;;7.96;50.31
63281;BME280;49406;51.044;3.766;2023-04-04T08:26:29;102997.47;;;8.09;50.25
63281;BME280;49406;51.044;3.766;2023-04-04T08:29:03;103002.00;;;8.06;47.37
63281;BME280;49406;51.044;3.766;2023-04-04T08:31:35;103007.14;;;8.01;47.66
63281;BME280;49406;51.044;3.766;2023-04-04T08:34:08;103011.40;;;8.09;46.73
63281;BME280;49406;51.044;3.766;2023-04-04T08:36:40;103009.42;;;8.28;46.74
63281;BME280;49406;51.044;3.766;2023-04-04T08:39:13;103010.39;;;8.39;47.27
63281;BME280;49406;51.044;3.766;2023-04-04T08:41:45;103011.71;;;8.58;46.84
63281;BME280;49406;51.044;3.766;2023-04-04T08:44:20;103012.02;;;8.82;47.79
63281;BME280;49406;51.044;3.766;2023-04-04T08:46:53;103017.13;;;9.03;47.08
63281;BME280;49406;51.044;3.766;2023-04-04T08:49:28;103009.08;;;9.00;46.08
63281;BME280;49406;51.044;3.766;2023-04-04T08:52:04;103008.85;;;9.13;45.52
63281;BME280;49406;51.044;3.766;2023-04-04T08:54:39;103014.21;;;9.05;43.23
63281;BME280;49406;51.044;3.766;2023-04-04T08:57:14;103008.88;;;8.89;43.63
63281;BME280;49406;51.044;3.766;2023-04-04T08:59:47;103009.63;;;8.93;44.31
63281;BME280;49406;51.044;3.766;2023-04-04T09:02:24;103005.72;;;9.02;43.66
63281;BME280;49406;51.044;3.766;2023-04-04T09:05:00;103010.30;;;8.99;44.02
63281;BME280;49406;51.044;3.766;2023-04-04T09:07:34;103011.58;;;9.04;44.02
63281;BME280;49406;51.044;3.766;2023-04-04T09:10:09;103008.27;;;9.08;44.80
63281;BME280;49406;51.044;3.766;2023-04-04T09:12:44;103007.55;;;9.04;44.32
63281;BME280;49406;51.044;3.766;2023-04-04T09:15:18;102997.02;;;9.03;43.49
63281;BME280;49406;51.044;3.766;2023-04-04T09:17:51;102994.36;;;9.23;44.53
63281;BME280;49406;51.044;3.766;2023-04-04T09:20:37;103000.42;;;9.19;43.26
63281;BME280;49406;51.044;3.766;2023-04-04T09:23:12;102994.39;;;9.17;44.32
63281;BME280;49406;51.044;3.766;2023-04-04T09:25:47;102993.66;;;9.23;43.45
63281;BME280;49406;51.044;3.766;2023-04-04T09:28:21;102989.53;;;9.36;44.52
63281;BME280;49406;51.044;3.766;2023-04-04T09:30:54;102994.09;;;9.40;42.43
63281;BME280;49406;51.044;3.766;2023-04-04T09:33:27;102992.00;;;9.40;42.40
63281;BME280;49406;51.044;3.766;2023-04-04T09:36:03;102991.25;;;9.46;42.65
63281;BME280;49406;51.044;3.766;2023-04-04T09:38:39;102997.45;;;9.48;42.30
63281;BME280;49406;51.044;3.766;2023-04-04T09:41:15;102995.06;;;9.38;41.64
63281;BME280;49406;51.044;3.766;2023-04-04T09:43:50;102995.48;;;9.51;41.68
63281;BME280;49406;51.044;3.766;2023-04-04T09:46:23;102994.80;;;9.51;40.44
63281;BME280;49406;51.044;3.766;2023-04-04T09:49:00;102986.54;;;9.46;40.68
63281;BME280;49406;51.044;3.766;2023-04-04T09:51:36;102993.58;;;9.32;41.18
63281;BME280;49406;51.044;3.766;2023-04-04T09:54:10;102988.05;;;9.45;41.01
63281;BME280;49406;51.044;3.766;2023-04-04T09:56:43;102981.19;;;9.55;41.59
63281;BME280;49406;51.044;3.766;2023-04-04T09:59:17;102980.20;;;9.60;41.06
63281;BME280;49406;51.044;3.766;2023-04-04T10:01:49;102982.23;;;9.66;40.90
63281;BME280;49406;51.044;3.766;2023-04-04T10:04:24;102982.67;;;9.57;40.39
63281;BME280;49406;51.044;3.766;2023-04-04T10:06:59;102977.48;;;9.66;41.19
63281;BME280;49406;51.044;3.766;2023-04-04T10:09:36;102978.33;;;9.88;41.56
63281;BME280;49406;51.044;3.766;2023-04-04T10:12:09;102985.00;;;9.85;39.97
63281;BME280;49406;51.044;3.766;2023-04-04T10:14:42;102984.00;;;9.98;40.15
63281;BME280;49406;51.044;3.766;2023-04-04T10:17:15;102986.93;;;9.97;39.63
63281;BME280;49406;51.044;3.766;2023-04-04T10:19:48;102983.70;;;9.99;39.74
63281;BME280;49406;51.044;3.766;2023-04-04T10:22:20;102979.19;;;10.07;39.60
63281;BME280;49406;51.044;3.766;2023-04-04T10:24:54;102981.92;;;10.14;38.66
63281;BME280;49406;51.044;3.766;2023-04-04T10:27:27;102978.82;;;10.11;38.73
63281;BME280;49406;51.044;3.766;2023-04-04T10:30:00;102971.88;;;10.12;39.49
63281;BME280;49406;51.044;3.766;2023-04-04T10:32:42;102971.02;;;10.12;38.94
63281;BME280;49406;51.044;3.766;2023-04-04T10:35:15;102969.13;;;10.09;39.71
63281;BME280;49406;51.044;3.766;2023-04-04T10:37:56;102965.35;;;9.99;38.92
63281;BME280;49406;51.044;3.766;2023-04-04T10:40:32;102960.52;;;10.00;38.40
63281;BME280;49406;51.044;3.766;2023-04-04T10:43:06;102964.50;;;10.11;39.39
63281;BME280;49406;51.044;3.766;2023-04-04T10:45:40;102963.11;;;10.23;39.11
63281;BME280;49406;51.044;3.766;2023-04-04T10:48:13;102961.17;;;10.22;38.57
63281;BME280;49406;51.044;3.766;2023-04-04T10:50:47;102959.44;;;10.34;40.25
63281;BME280;49406;51.044;3.766;2023-04-04T10:53:20;102955.62;;;10.56;39.43
63281;BME280;49406;51.044;3.766;2023-04-04T10:55:54;102956.23;;;10.62;39.74
63281;BME280;49406;51.044;3.766;2023-04-04T10:58:28;102954.94;;;10.65;38.57
63281;BME280;49406;51.044;3.766;2023-04-04T11:01:01;102951.70;;;10.58;38.54
63281;BME280;49406;51.044;3.766;2023-04-04T11:07:09;102942.79;;;10.67;37.53
63281;BME280;49406;51.044;3.766;2023-04-04T11:09:52;102944.43;;;10.77;38.27
63281;BME280;49406;51.044;3.766;2023-04-04T11:12:29;102944.73;;;10.85;37.79
63281;BME280;49406;51.044;3.766;2023-04-04T11:15:09;102947.14;;;10.88;38.19
63281;BME280;49406;51.044;3.766;2023-04-04T11:18:04;102943.36;;;10.89;39.19
63281;BME280;49406;51.044;3.766;2023-04-04T11:20:41;102941.26;;;10.94;38.15
63281;BME280;49406;51.044;3.766;2023-04-04T11:23:17;102935.45;;;10.97;38.47
63281;BME280;49406;51.044;3.766;2023-04-04T11:25:53;102931.20;;;11.05;38.23
63281;BME280;49406;51.044;3.766;2023-04-04T11:28:41;102924.26;;;11.15;36.90
63281;BME280;49406;51.044;3.766;2023-04-04T11:31:28;102925.20;;;11.08;36.60
63281;BME280;49406;51.044;3.766;2023-04-04T11:34:05;102921.13;;;10.98;37.48
63281;BME280;49406;51.044;3.766;2023-04-04T11:36:53;102920.00;;;11.00;36.76
63281;BME280;49406;51.044;3.766;2023-04-04T11:39:28;102911.23;;;10.96;37.51
63281;BME280;49406;51.044;3.766;2023-04-04T11:42:04;102909.11;;;11.22;38.29
63281;BME280;49406;51.044;3.766;2023-04-04T11:44:59;102911.31;;;11.25;38.40
63281;BME280;49406;51.044;3.766;2023-04-04T11:47:33;102909.02;;;11.24;37.85
63281;BME280;49406;51.044;3.766;2023-04-04T11:50:09;102912.08;;;10.99;37.78
63281;BME280;49406;51.044;3.766;2023-04-04T11:52:42;102905.86;;;11.15;37.74
63281;BME280;49406;51.044;3.766;2023-04-04T11:55:15;102896.02;;;11.37;37.18
63281;BME280;49406;51.044;3.766;2023-04-04T11:57:48;102886.77;;;11.47;37.97
63281;BME280;49406;51.044;3.766;2023-04-04T12:00:32;102888.73;;;11.67;37.40
63281;BME280;49406;51.044;3.766;2023-04-04T12:03:08;102885.91;;;11.52;36.15
63281;BME280;49406;51.044;3.766;2023-04-04T12:05:43;102881.45;;;11.50;36.39
63281;BME280;49406;51.044;3.766;2023-04-04T12:08:17;102885.73;;;11.57;36.98
63281;BME280;49406;51.044;3.766;2023-04-04T12:10:51;102885.60;;;11.39;36.32
63281;BME280;49406;51.044;3.766;2023-04-04T12:13:30;102881.41;;;11.17;37.02
63281;BME280;49406;51.044;3.766;2023-04-04T12:16:03;102881.00;;;11.24;37.23
63281;BME280;49406;51.044;3.766;2023-04-04T12:18:36;102875.83;;;11.17;37.21
63281;BME280;49406;51.044;3.766;2023-04-04T12:21:08;102869.03;;;11.27;37.33
63281;BME280;49406;51.044;3.766;2023-04-04T12:23:42;102871.09;;;11.35;37.58
63281;BME280;49406;51.044;3.766;2023-04-04T12:26:15;102864.14;;;11.41;36.79
63281;BME280;49406;51.044;3.766;2023-04-04T12:28:48;102855.45;;;11.39;36.73
63281;BME280;49406;51.044;3.766;2023-04-04T12:31:21;102857.27;;;11.31;36.73
63281;BME280;49406;51.044;3.766;2023-04-04T12:33:54;102853.16;;;11.48;37.90
63281;BME280;49406;51.044;3.766;2023-04-04T12:36:28;102857.78;;;11.64;37.16
63281;BME280;49406;51.044;3.766;2023-04-04T12:39:05;102857.91;;;11.62;37.26
63281;BME280;49406;51.044;3.766;2023-04-04T12:41:50;102857.60;;;11.68;36.60
63281;BME280;49406;51.044;3.766;2023-04-04T12:44:28;102855.23;;;11.61;36.58
63281;BME280;49406;51.044;3.766;2023-04-04T12:47:03;102843.86;;;11.67;36.35
63281;BME280;49406;51.044;3.766;2023-04-04T12:49:40;102845.95;;;11.71;36.33
63281;BME280;49406;51.044;3.766;2023-04-04T12:52:18;102847.75;;;11.87;36.35
63281;BME280;49406;51.044;3.766;2023-04-04T12:54:52;102844.91;;;11.57;35.81
63281;BME280;49406;51.044;3.766;2023-04-04T12:57:26;102834.00;;;11.56;36.61
63281;BME280;49406;51.044;3.766;2023-04-04T13:00:01;102824.77;;;11.67;37.37
63281;BME280;49406;51.044;3.766;2023-04-04T13:02:38;102819.02;;;11.87;36.89
63281;BME280;49406;51.044;3.766;2023-04-04T13:05:14;102810.70;;;11.95;36.98
63281;BME280;49406;51.044;3.766;2023-04-04T13:07:48;102803.23;;;12.02;37.26
63281;BME280;49406;51.044;3.766;2023-04-04T13:10:21;102802.47;;;12.11;35.47
63281;BME280;49406;51.044;3.766;2023-04-04T13:12:58;102787.12;;;11.87;35.30
63281;BME280;49406;51.044;3.766;2023-04-04T13:15:50;102790.80;;;11.82;36.35
63281;BME280;49406;51.044;3.766;2023-04-04T13:18:24;102794.13;;;11.78;36.51
63281;BME280;49406;51.044;3.766;2023-04-04T13:20:57;102789.80;;;11.79;36.63
63281;BME280;49406;51.044;3.766;2023-04-04T13:23:30;102789.55;;;11.87;36.51
63281;BME280;49406;51.044;3.766;2023-04-04T13:26:03;102788.80;;;11.95;37.05
63281;BME280;49406;51.044;3.766;2023-04-04T13:28:36;102785.23;;;12.04;36.16
63281;BME280;49406;51.044;3.766;2023-04-04T13:31:09;102784.76;;;12.16;35.27
63281;BME280;49406;51.044;3.766;2023-04-04T13:33:42;102787.51;;;12.26;35.61